Time,TemperatureF,DewpointF,PressureIn,WindDirection,WindDirectionDegrees,WindSpeedMPH,WindSpeedGustMPH,Humidity,HourlyPrecipIn,Conditions,Clouds,dailyrainin,SolarRadiationWatts/m^2,SoftwareType,DateUTC
2013-03-04 00:01:00,31.0,28.0,-100.00,WNW,285,3.0,6.0,88,0.00,,,0.00,0.000000,,2013-03-04 05:01:00,
2013-03-04 00:11:00,31.0,28.0,-100.00,WNW,285,3.0,6.0,88,0.00,,,0.00,0.000000,,2013-03-04 05:11:00,
2013-03-04 00:43:00,30.0,27.0,-100.00,NW,320,3.0,5.0,87,0.00,,,0.00,0.000000,,2013-03-04 05:43:00,
2013-03-04 00:52:00,30.0,27.0,-100.00,NW,320,3.0,5.0,87,0.00,,,0.00,0.000000,,2013-03-04 05:52:00,
2013-03-04 01:02:00,30.0,27.0,-100.00,NW,320,3.0,5.0,87,0.00,,,0.00,0.000000,,2013-03-04 06:02:00,
2013-03-04 01:11:00,30.0,27.0,-100.00,NW,320,3.0,5.0,87,0.00,,,0.00,0.000000,,2013-03-04 06:11:00,
2013-03-04 01:32:00,30.0,25.0,-100.00,NW,324,0.0,5.0,81,0.00,,,0.00,0.000000,,2013-03-04 06:32:00,
2013-03-04 01:42:00,30.0,25.0,-100.00,NW,324,0.0,5.0,81,0.00,,,0.00,0.000000,,2013-03-04 06:42:00,
2013-03-04 01:52:00,30.0,25.0,-100.00,NW,324,0.0,5.0,81,0.00,,,0.00,0.000000,,2013-03-04 06:52:00,
2013-03-04 02:02:00,30.0,25.0,-100.00,NW,324,0.0,5.0,81,0.00,,,0.00,0.000000,,2013-03-04 07:02:00,
2013-03-04 02:11:00,30.0,25.0,-100.00,NW,324,0.0,5.0,81,0.00,,,0.00,0.000000,,2013-03-04 07:11:00,
2013-03-04 02:32:00,28.0,23.0,-100.00,NW,306,1.0,3.0,82,0.00,,,0.00,0.000000,,2013-03-04 07:32:00,
2013-03-04 02:42:00,28.0,23.0,-100.00,NW,306,1.0,3.0,82,0.00,,,0.00,0.000000,,2013-03-04 07:42:00,
2013-03-04 02:52:00,28.0,23.0,-100.00,NW,306,1.0,3.0,82,0.00,,,0.00,0.000000,,2013-03-04 07:52:00,
2013-03-04 03:02:00,28.0,23.0,-100.00,NW,306,1.0,3.0,82,0.00,,,0.00,0.000000,,2013-03-04 08:02:00,
2013-03-04 03:12:00,28.0,23.0,-100.00,NW,306,1.0,3.0,82,0.00,,,0.00,0.000000,,2013-03-04 08:12:00,
2013-03-04 03:42:00,29.0,22.0,-100.00,NW,310,3.0,9.0,75,0.00,,,0.00,0.000000,,2013-03-04 08:42:00,
2013-03-04 03:52:00,29.0,22.0,-100.00,NW,310,3.0,9.0,75,0.00,,,0.00,0.000000,,2013-03-04 08:52:00,
2013-03-04 04:02:00,29.0,22.0,-100.00,NW,310,3.0,9.0,75,0.00,,,0.00,0.000000,,2013-03-04 09:02:00,
2013-03-04 04:11:00,29.0,22.0,-100.00,NW,310,3.0,9.0,75,0.00,,,0.00,0.000000,,2013-03-04 09:11:00,
2013-03-04 04:32:00,27.0,21.0,-100.00,NW,308,0.0,5.0,79,0.00,,,0.00,0.000000,,2013-03-04 09:32:00,
2013-03-04 04:42:00,27.0,21.0,-100.00,NW,308,0.0,5.0,79,0.00,,,0.00,0.000000,,2013-03-04 09:42:00,
2013-03-04 04:52:00,27.0,21.0,-100.00,NW,308,0.0,5.0,79,0.00,,,0.00,0.000000,,2013-03-04 09:52:00,
2013-03-04 05:01:00,27.0,21.0,-100.00,NW,308,0.0,5.0,79,0.00,,,0.00,0.000000,,2013-03-04 10:01:00,
2013-03-04 05:12:00,27.0,21.0,-100.00,NW,308,0.0,5.0,79,0.00,,,0.00,0.000000,,2013-03-04 10:12:00,
2013-03-04 05:32:00,26.0,22.0,-100.00,NW,317,0.0,0.0,84,0.00,,,0.00,0.000000,,2013-03-04 10:32:00,
2013-03-04 05:42:00,26.0,22.0,-100.00,NW,317,0.0,0.0,84,0.00,,,0.00,0.000000,,2013-03-04 10:42:00,
2013-03-04 05:52:00,26.0,22.0,-100.00,NW,317,0.0,0.0,84,0.00,,,0.00,0.000000,,2013-03-04 10:52:00,
2013-03-04 06:02:00,26.0,22.0,-100.00,NW,317,0.0,0.0,84,0.00,,,0.00,0.000000,,2013-03-04 11:02:00,
2013-03-04 06:11:00,26.0,22.0,-100.00,NW,317,0.0,0.0,84,0.00,,,0.00,0.000000,,2013-03-04 11:11:00,
2013-03-04 06:32:00,26.0,20.0,-100.00,WNW,298,1.0,6.0,79,0.00,,,0.00,0.000000,,2013-03-04 11:32:00,
2013-03-04 06:42:00,26.0,20.0,-100.00,WNW,298,1.0,6.0,79,0.00,,,0.00,0.000000,,2013-03-04 11:42:00,
2013-03-04 06:52:00,26.0,20.0,-100.00,WNW,298,1.0,6.0,79,0.00,,,0.00,0.000000,,2013-03-04 11:52:00,
2013-03-04 07:02:00,26.0,20.0,-100.00,WNW,298,1.0,6.0,79,0.00,,,0.00,0.000000,,2013-03-04 12:02:00,
2013-03-04 07:11:00,26.0,20.0,-100.00,WNW,298,1.0,6.0,79,0.00,,,0.00,0.000000,,2013-03-04 12:11:00,
2013-03-04 07:32:00,28.0,22.0,-100.00,WNW,303,4.0,7.0,77,0.00,,,0.00,20.000000,,2013-03-04 12:32:00,
2013-03-04 07:43:00,28.0,22.0,-100.00,WNW,303,4.0,7.0,77,0.00,,,0.00,20.000000,,2013-03-04 12:43:00,
2013-03-04 07:53:00,28.0,22.0,-100.00,WNW,303,4.0,7.0,77,0.00,,,0.00,20.000000,,2013-03-04 12:53:00,
2013-03-04 08:02:00,28.0,22.0,-100.00,WNW,303,4.0,7.0,77,0.00,,,0.00,20.000000,,2013-03-04 13:02:00,
2013-03-04 08:11:00,28.0,22.0,-100.00,WNW,303,4.0,7.0,77,0.00,,,0.00,20.000000,,2013-03-04 13:11:00,
2013-03-04 08:42:00,32.0,23.0,-100.00,NW,319,9.0,14.0,68,0.00,,,0.00,138.000000,,2013-03-04 13:42:00,
2013-03-04 08:52:00,32.0,23.0,-100.00,NW,319,9.0,14.0,68,0.00,,,0.00,138.000000,,2013-03-04 13:52:00,
2013-03-04 09:01:00,32.0,23.0,-100.00,NW,319,9.0,14.0,68,0.00,,,0.00,138.000000,,2013-03-04 14:01:00,
2013-03-04 09:12:00,32.0,23.0,-100.00,NW,319,9.0,14.0,68,0.00,,,0.00,138.000000,,2013-03-04 14:12:00,
2013-03-04 09:42:00,35.0,20.0,-100.00,NNW,327,12.0,17.0,55,0.00,,,0.00,457.000000,,2013-03-04 14:42:00,
2013-03-04 09:52:00,35.0,20.0,-100.00,NNW,327,12.0,17.0,55,0.00,,,0.00,457.000000,,2013-03-04 14:52:00,
2013-03-04 10:02:00,35.0,20.0,-100.00,NNW,327,12.0,17.0,55,0.00,,,0.00,457.000000,,2013-03-04 15:02:00,
2013-03-04 10:11:00,35.0,20.0,-100.00,NNW,327,12.0,17.0,55,0.00,,,0.00,457.000000,,2013-03-04 15:11:00,
2013-03-04 10:42:00,38.0,19.0,-100.00,NW,324,12.0,21.0,46,0.00,,,0.00,650.000000,,2013-03-04 15:42:00,
2013-03-04 10:52:00,38.0,19.0,-100.00,NW,324,12.0,21.0,46,0.00,,,0.00,650.000000,,2013-03-04 15:52:00,
2013-03-04 11:03:00,38.0,19.0,-100.00,NW,324,12.0,21.0,46,0.00,,,0.00,650.000000,,2013-03-04 16:03:00,
2013-03-04 11:11:00,38.0,19.0,-100.00,NW,324,12.0,21.0,46,0.00,,,0.00,650.000000,,2013-03-04 16:11:00,
2013-03-04 11:42:00,40.0,19.0,-100.00,NW,317,9.0,21.0,43,0.00,,,0.00,783.000000,,2013-03-04 16:42:00,
2013-03-04 11:52:00,40.0,19.0,-100.00,NW,317,9.0,21.0,43,0.00,,,0.00,783.000000,,2013-03-04 16:52:00,
2013-03-04 12:02:00,40.0,19.0,-100.00,NW,317,9.0,21.0,43,0.00,,,0.00,783.000000,,2013-03-04 17:02:00,
2013-03-04 12:11:00,40.0,19.0,-100.00,NW,317,9.0,21.0,43,0.00,,,0.00,783.000000,,2013-03-04 17:11:00,
2013-03-04 12:42:00,43.0,20.0,-100.00,WNW,303,9.0,19.0,40,0.00,,,0.00,852.000000,,2013-03-04 17:42:00,
2013-03-04 12:52:00,43.0,20.0,-100.00,WNW,303,9.0,19.0,40,0.00,,,0.00,852.000000,,2013-03-04 17:52:00,
2013-03-04 13:02:00,43.0,20.0,-100.00,WNW,303,9.0,19.0,40,0.00,,,0.00,852.000000,,2013-03-04 18:02:00,
2013-03-04 13:11:00,43.0,20.0,-100.00,WNW,303,9.0,19.0,40,0.00,,,0.00,852.000000,,2013-03-04 18:11:00,
2013-03-04 13:42:00,45.0,21.0,-100.00,WNW,289,8.0,17.0,38,0.00,,,0.00,851.000000,,2013-03-04 18:42:00,
2013-03-04 13:52:00,45.0,21.0,-100.00,WNW,289,8.0,17.0,38,0.00,,,0.00,851.000000,,2013-03-04 18:52:00,
2013-03-04 14:02:00,45.0,21.0,-100.00,WNW,289,8.0,17.0,38,0.00,,,0.00,851.000000,,2013-03-04 19:02:00,
2013-03-04 14:12:00,45.0,21.0,-100.00,WNW,289,8.0,17.0,38,0.00,,,0.00,851.000000,,2013-03-04 19:12:00,
2013-03-04 14:42:00,47.0,21.0,-100.00,WNW,286,8.0,16.0,35,0.00,,,0.00,780.000000,,2013-03-04 19:42:00,
2013-03-04 14:52:00,47.0,21.0,-100.00,WNW,286,8.0,16.0,35,0.00,,,0.00,780.000000,,2013-03-04 19:52:00,
2013-03-04 15:02:00,47.0,21.0,-100.00,WNW,286,8.0,16.0,35,0.00,,,0.00,780.000000,,2013-03-04 20:02:00,
2013-03-04 15:12:00,47.0,21.0,-100.00,WNW,286,8.0,16.0,35,0.00,,,0.00,780.000000,,2013-03-04 20:12:00,
2013-03-04 15:42:00,48.0,20.0,-100.00,WNW,299,8.0,16.0,32,0.00,,,0.00,648.000000,,2013-03-04 20:42:00,
2013-03-04 15:53:00,48.0,20.0,-100.00,WNW,299,8.0,16.0,32,0.00,,,0.00,648.000000,,2013-03-04 20:53:00,
2013-03-04 16:02:00,48.0,20.0,-100.00,WNW,299,8.0,16.0,32,0.00,,,0.00,648.000000,,2013-03-04 21:02:00,
2013-03-04 16:12:00,48.0,20.0,-100.00,WNW,299,8.0,16.0,32,0.00,,,0.00,648.000000,,2013-03-04 21:12:00,
2013-03-04 16:32:00,48.0,17.0,-100.00,WNW,297,8.0,16.0,29,0.00,,,0.00,354.000000,,2013-03-04 21:32:00,
2013-03-04 16:43:00,48.0,17.0,-100.00,WNW,297,8.0,16.0,29,0.00,,,0.00,354.000000,,2013-03-04 21:43:00,
2013-03-04 16:53:00,48.0,17.0,-100.00,WNW,297,8.0,16.0,29,0.00,,,0.00,354.000000,,2013-03-04 21:53:00,
2013-03-04 17:02:00,48.0,17.0,-100.00,WNW,297,8.0,16.0,29,0.00,,,0.00,354.000000,,2013-03-04 22:02:00,
2013-03-04 17:12:00,48.0,17.0,-100.00,WNW,297,8.0,16.0,29,0.00,,,0.00,354.000000,,2013-03-04 22:12:00,
2013-03-04 17:43:00,48.0,17.0,-100.00,NW,308,6.0,13.0,29,0.00,,,0.00,124.000000,,2013-03-04 22:43:00,
2013-03-04 17:52:00,48.0,17.0,-100.00,NW,308,6.0,13.0,29,0.00,,,0.00,124.000000,,2013-03-04 22:52:00,
2013-03-04 18:02:00,48.0,17.0,-100.00,NW,308,6.0,13.0,29,0.00,,,0.00,124.000000,,2013-03-04 23:02:00,
2013-03-04 18:11:00,48.0,17.0,-100.00,NW,308,6.0,13.0,29,0.00,,,0.00,124.000000,,2013-03-04 23:11:00,
2013-03-04 18:32:00,44.0,17.0,-100.00,West,277,2.0,8.0,33,0.00,,,0.00,25.000000,,2013-03-04 23:32:00,
2013-03-04 18:42:00,44.0,17.0,-100.00,West,277,2.0,8.0,33,0.00,,,0.00,25.000000,,2013-03-04 23:42:00,
2013-03-04 18:52:00,44.0,17.0,-100.00,West,277,2.0,8.0,33,0.00,,,0.00,25.000000,,2013-03-04 23:52:00,
2013-03-04 19:02:00,44.0,17.0,-100.00,West,277,2.0,8.0,33,0.00,,,0.00,25.000000,,2013-03-05 00:02:00,
2013-03-04 19:12:00,44.0,17.0,-100.00,West,277,2.0,8.0,33,0.00,,,0.00,25.000000,,2013-03-05 00:12:00,
2013-03-04 19:42:00,36.0,23.0,-100.00,West,275,0.0,0.0,60,0.00,,,0.00,0.000000,,2013-03-05 00:42:00,
2013-03-04 19:52:00,36.0,23.0,-100.00,West,275,0.0,0.0,60,0.00,,,0.00,0.000000,,2013-03-05 00:52:00,
2013-03-04 20:02:00,36.0,23.0,-100.00,West,275,0.0,0.0,60,0.00,,,0.00,0.000000,,2013-03-05 01:02:00,
2013-03-04 20:12:00,36.0,23.0,-100.00,West,275,0.0,0.0,60,0.00,,,0.00,0.000000,,2013-03-05 01:12:00,
2013-03-04 20:42:00,33.0,24.0,-100.00,West,274,0.0,1.0,69,0.00,,,0.00,0.000000,,2013-03-05 01:42:00,
2013-03-04 20:52:00,33.0,24.0,-100.00,West,274,0.0,1.0,69,0.00,,,0.00,0.000000,,2013-03-05 01:52:00,
2013-03-04 21:02:00,33.0,24.0,-100.00,West,274,0.0,1.0,69,0.00,,,0.00,0.000000,,2013-03-05 02:02:00,
2013-03-04 21:12:00,33.0,24.0,-100.00,West,274,0.0,1.0,69,0.00,,,0.00,0.000000,,2013-03-05 02:12:00,
2013-03-04 21:42:00,30.0,23.0,-100.00,WSW,250,0.0,0.0,76,0.00,,,0.00,0.000000,,2013-03-05 02:42:00,
2013-03-04 21:53:00,30.0,23.0,-100.00,WSW,250,0.0,0.0,76,0.00,,,0.00,0.000000,,2013-03-05 02:53:00,
2013-03-04 22:02:00,30.0,23.0,-100.00,WSW,250,0.0,0.0,76,0.00,,,0.00,0.000000,,2013-03-05 03:02:00,
2013-03-04 22:12:00,30.0,23.0,-100.00,WSW,250,0.0,0.0,76,0.00,,,0.00,0.000000,,2013-03-05 03:12:00,
2013-03-04 22:32:00,29.0,25.0,-100.00,South,183,0.0,0.0,85,0.00,,,0.00,0.000000,,2013-03-05 03:32:00,
2013-03-04 22:42:00,29.0,25.0,-100.00,South,183,0.0,0.0,85,0.00,,,0.00,0.000000,,2013-03-05 03:42:00,
2013-03-04 22:52:00,29.0,25.0,-100.00,South,183,0.0,0.0,85,0.00,,,0.00,0.000000,,2013-03-05 03:52:00,
2013-03-04 23:02:00,29.0,25.0,-100.00,South,183,0.0,0.0,85,0.00,,,0.00,0.000000,,2013-03-05 04:02:00,
2013-03-04 23:12:00,29.0,25.0,-100.00,South,183,0.0,0.0,85,0.00,,,0.00,0.000000,,2013-03-05 04:12:00,
2013-03-04 23:32:00,29.0,26.0,-100.00,South,183,0.0,3.0,90,0.00,,,0.00,0.000000,,2013-03-05 04:32:00,
2013-03-04 23:42:00,29.0,26.0,-100.00,South,183,0.0,3.0,90,0.00,,,0.00,0.000000,,2013-03-05 04:42:00,
2013-03-04 23:52:00,29.0,26.0,-100.00,South,183,0.0,3.0,90,0.00,,,0.00,0.000000,,2013-03-05 04:52:00,